Time;durP1;ratioP1;P1;durP2;ratioP2;P2;SDS_P1;SDS_P2;PMS_P1;PMS_P2;Temp;Humidity;BMP_temperature;BMP_pressure;BME280_temperature;BME280_humidity;BME280_pressure;Samples;Min_cycle;Max_cycle;Signal;HPM_P1;HPM_P2
2021/06/09 00:01:13;;;;;;;;;6.50;4.75;;;;;20.34;49.45;102099.94;4962951;28;45309;-77
2021/06/09 00:03:38;;;;;;;;;5.25;5.25;;;;;20.30;49.25;102104.56;4979551;28;45311;-76
2021/06/09 00:06:04;;;;;;;;;5.00;5.00;;;;;20.26;49.21;102096.78;4972375;28;46620;-75
2021/06/09 00:08:29;;;;;;;;;5.00;5.00;;;;;20.26;49.63;102097.66;4978102;28;45267;-76
2021/06/09 00:10:56;;;;;;;;;5.00;5.00;;;;;20.30;49.91;102103.69;4978052;28;46350;-76
2021/06/09 00:13:24;;;;;;;;;4.00;4.00;;;;;20.29;49.90;102101.97;4974650;28;45497;-76
2021/06/09 00:15:50;;;;;;;;;5.25;5.00;;;;;20.28;49.24;102106.44;4976967;28;45317;-75
2021/06/09 00:18:16;;;;;;;;;5.00;5.00;;;;;20.23;49.14;102109.34;4967106;28;45377;-75
2021/06/09 00:20:42;;;;;;;;;4.75;4.75;;;;;20.18;49.49;102098.06;4978502;28;45342;-75
2021/06/09 00:23:10;;;;;;;;;6.25;5.00;;;;;20.17;49.79;102092.81;4977745;28;45458;-76
2021/06/09 00:25:36;;;;;;;;;5.00;5.00;;;;;20.17;50.28;102103.47;4975150;28;45446;-76
2021/06/09 00:28:01;;;;;;;;;4.50;2.50;;;;;20.18;50.12;102100.72;4979646;28;45244;-76
2021/06/09 00:30:33;;;;;;;;;5.00;4.75;;;;;20.19;50.03;102104.25;4967344;28;45280;-76
2021/06/09 00:33:00;;;;;;;;;6.00;6.00;;;;;20.15;50.06;102103.53;4972299;28;45411;-77
2021/06/09 00:35:26;;;;;;;;;4.00;4.00;;;;;20.11;50.20;102099.31;4965186;28;45345;-77
2021/06/09 00:37:52;;;;;;;;;5.50;4.75;;;;;20.09;50.75;102098.50;4966527;28;45503;-75
2021/06/09 00:40:17;;;;;;;;;6.25;6.25;;;;;20.05;50.87;102095.13;4980005;28;46112;-75
2021/06/09 00:43:04;;;;;;;;;6.00;6.00;;;;;20.02;51.31;102095.31;4977265;28;45158;-75
2021/06/09 00:45:30;;;;;;;;;4.25;3.25;;;;;19.97;51.57;102100.88;4994114;28;45434;-75
2021/06/09 00:47:55;;;;;;;;;6.25;6.25;;;;;19.92;51.22;102092.25;4978983;28;45193;-75
2021/06/09 00:50:21;;;;;;;;;6.50;6.50;;;;;19.84;51.88;102086.44;4979343;28;45297;-75
2021/06/09 00:52:46;;;;;;;;;5.50;5.00;;;;;19.81;52.17;102092.78;4976660;28;45657;-75
2021/06/09 00:55:12;;;;;;;;;7.25;6.75;;;;;19.73;52.61;102087.84;4969459;28;45518;-75
2021/06/09 00:57:39;;;;;;;;;7.25;6.25;;;;;19.70;51.99;102087.16;4969574;28;45353;-75
2021/06/09 01:00:11;;;;;;;;;4.25;4.25;;;;;19.64;52.87;102085.63;4972232;28;45475;-76
2021/06/09 01:02:38;;;;;;;;;7.25;6.75;;;;;19.55;52.60;102082.50;4974092;28;45309;-76
2021/06/09 01:05:05;;;;;;;;;5.00;5.00;;;;;19.51;53.44;102080.06;4971659;28;45265;-76
2021/06/09 01:07:31;;;;;;;;;5.50;5.00;;;;;19.43;53.20;102080.47;4972736;28;45486;-76
2021/06/09 01:09:57;;;;;;;;;5.00;5.00;;;;;19.39;53.83;102086.84;4992600;28;47090;-76
2021/06/09 01:12:23;;;;;;;;;5.25;5.25;;;;;19.32;53.63;102081.84;4969704;28;45588;-77
2021/06/09 01:14:48;;;;;;;;;5.25;4.50;;;;;19.29;53.53;102083.78;4971340;28;45186;-76
2021/06/09 01:17:13;;;;;;;;;8.00;7.00;;;;;19.23;54.25;102077.84;4976095;28;45360;-77
2021/06/09 01:19:39;;;;;;;;;6.50;6.50;;;;;19.19;53.75;102075.38;4977067;28;45210;-77
2021/06/09 01:22:04;;;;;;;;;6.75;5.50;;;;;19.16;54.21;102080.84;4976236;28;45474;-77
2021/06/09 01:24:30;;;;;;;;;8.00;7.00;;;;;19.11;54.63;102073.91;4979147;28;45237;-77
2021/06/09 01:26:56;;;;;;;;;6.75;5.75;;;;;19.07;54.48;102066.13;4978649;28;45284;-77
2021/06/09 01:29:21;;;;;;;;;5.25;5.25;;;;;19.01;54.69;102062.84;4978275;28;46112;-78
2021/06/09 01:31:46;;;;;;;;;6.25;6.25;;;;;19.00;54.61;102070.91;4976598;28;45419;-78
2021/06/09 01:34:12;;;;;;;;;7.00;7.00;;;;;18.95;54.63;102070.25;4969974;28;45448;-78
2021/06/09 01:36:40;;;;;;;;;9.25;8.25;;;;;18.93;55.14;102069.47;4961501;28;45363;-78
2021/06/09 01:39:15;;;;;;;;;11.00;8.00;;;;;18.91;55.19;102071.34;4976270;28;45365;-78
2021/06/09 01:41:46;;;;;;;;;10.50;10.50;;;;;18.89;54.77;102074.06;4974290;28;45586;-78
2021/06/09 01:44:12;;;;;;;;;14.00;11.25;;;;;18.84;55.28;102068.97;4965246;28;45461;-77
2021/06/09 01:46:38;;;;;;;;;13.50;11.00;;;;;18.80;55.44;102064.72;4976751;28;45505;-77
2021/06/09 01:49:09;;;;;;;;;12.25;11.00;;;;;18.77;55.21;102076.38;4978795;28;46506;-77
2021/06/09 01:51:35;;;;;;;;;14.75;12.50;;;;;18.76;55.67;102073.81;4976159;28;45866;-77
2021/06/09 01:54:02;;;;;;;;;11.25;11.00;;;;;18.74;55.37;102070.34;4977917;28;45243;-77
2021/06/09 01:56:27;;;;;;;;;15.25;14.75;;;;;18.72;55.71;102074.88;4970720;28;46271;-77
2021/06/09 01:58:53;;;;;;;;;13.25;12.50;;;;;18.69;55.76;102072.38;4984335;28;47216;-77
2021/06/09 02:01:19;;;;;;;;;13.50;12.00;;;;;18.67;55.58;102072.41;4972669;28;45518;-78
2021/06/09 02:03:44;;;;;;;;;15.50;12.00;;;;;18.64;55.99;102072.56;4975826;28;45651;-76
2021/06/09 02:06:10;;;;;;;;;12.75;10.25;;;;;18.63;56.02;102073.50;4978429;28;45423;-77
2021/06/09 02:08:35;;;;;;;;;11.25;11.25;;;;;18.60;56.58;102069.19;4979468;28;45275;-76
2021/06/09 02:11:01;;;;;;;;;13.25;11.50;;;;;18.58;56.42;102071.06;4980065;28;45288;-76
2021/06/09 02:13:26;;;;;;;;;13.25;12.25;;;;;18.54;56.47;102072.13;4996251;28;45504;-76
2021/06/09 02:15:54;;;;;;;;;13.75;11.50;;;;;18.50;56.14;102074.06;4973422;28;45154;-76
2021/06/09 02:18:23;;;;;;;;;14.25;12.25;;;;;18.51;56.63;102074.94;4968143;28;45229;-76
2021/06/09 02:20:57;;;;;;;;;11.25;10.50;;;;;18.48;55.97;102073.28;4981770;28;45379;-76
2021/06/09 02:23:28;;;;;;;;;10.75;10.50;;;;;18.45;56.42;102065.41;4980682;28;45474;-75
2021/06/09 02:25:59;;;;;;;;;11.50;11.00;;;;;18.44;56.87;102069.03;4980362;28;45378;-75
2021/06/09 02:28:27;;;;;;;;;11.75;9.75;;;;;18.40;56.67;102062.09;4969789;28;46082;-76
2021/06/09 02:30:53;;;;;;;;;8.50;7.50;;;;;18.38;56.54;102064.84;4980372;28;45305;-76
2021/06/09 02:33:20;;;;;;;;;9.50;9.50;;;;;18.35;57.34;102061.47;4977299;28;45399;-76
2021/06/09 02:35:47;;;;;;;;;11.00;10.25;;;;;18.28;57.13;102058.19;4973572;28;45213;-76
2021/06/09 02:38:14;;;;;;;;;15.25;11.25;;;;;18.26;57.34;102060.06;4979191;28;46363;-76
2021/06/09 02:40:42;;;;;;;;;10.25;10.25;;;;;18.21;57.64;102060.28;4981757;28;45541;-75
2021/06/09 02:43:08;;;;;;;;;13.25;10.75;;;;;18.19;57.41;102065.69;4980860;28;45167;-75
2021/06/09 02:45:34;;;;;;;;;10.25;10.00;;;;;18.13;58.16;102060.56;4972773;28;45472;-75
2021/06/09 02:48:04;;;;;;;;;7.50;7.25;;;;;18.10;57.89;102063.38;4966618;28;46168;-75
2021/06/09 02:50:29;;;;;;;;;8.00;8.00;;;;;18.07;58.01;102061.72;4981542;28;45284;-75
2021/06/09 02:53:21;;;;;;;;;9.00;9.00;;;;;18.08;58.10;102066.09;4980281;28;45246;-75
2021/06/09 02:56:05;;;;;;;;;10.00;10.00;;;;;18.06;58.17;102054.66;4968201;28;45367;-75
2021/06/09 02:58:48;;;;;;;;;8.25;8.25;;;;;18.05;57.75;102062.72;4975843;28;45241;-75
2021/06/09 03:01:29;;;;;;;;;9.50;8.75;;;;;18.02;58.38;102055.75;4975353;28;45552;-75
2021/06/09 03:04:12;;;;;;;;;9.25;8.00;;;;;17.97;58.11;102069.25;4981394;28;45489;-75
2021/06/09 03:07:02;;;;;;;;;7.50;5.50;;;;;17.95;58.28;102067.59;4966645;28;46021;-75
2021/06/09 03:09:45;;;;;;;;;9.75;8.50;;;;;17.92;58.75;102067.72;4976487;28;46086;-75
2021/06/09 03:12:25;;;;;;;;;9.50;9.50;;;;;17.90;58.62;102064.25;4979386;28;45602;-75
2021/06/09 03:15:10;;;;;;;;;7.00;7.00;;;;;17.86;58.96;102069.69;4963759;28;45298;-76
2021/06/09 03:17:58;;;;;;;;;6.00;6.00;;;;;17.85;58.73;102067.13;4976685;28;45257;-75
2021/06/09 03:21:02;;;;;;;;;11.25;9.00;;;;;17.82;58.88;102059.25;4969953;28;47013;-75
2021/06/09 03:24:05;;;;;;;;;9.50;8.50;;;;;17.80;59.32;102066.44;4978882;28;45404;-74
2021/06/09 03:26:53;;;;;;;;;9.75;8.00;;;;;17.77;58.86;102065.66;4963394;28;45496;-75
2021/06/09 03:29:44;;;;;;;;;8.00;6.75;;;;;17.77;59.29;102064.78;4974241;28;45466;-75
2021/06/09 03:32:17;;;;;;;;;10.25;10.25;;;;;17.76;59.37;102068.34;4978046;28;48021;-75
2021/06/09 03:34:50;;;;;;;;;6.75;6.00;;;;;17.70;59.27;102064.19;4978909;28;45250;-75
2021/06/09 03:37:19;;;;;;;;;11.00;9.25;;;;;17.69;59.83;102070.41;4979350;28;45453;-75
2021/06/09 03:39:46;;;;;;;;;11.75;11.50;;;;;17.66;59.75;102065.22;4980473;28;45501;-74
2021/06/09 03:42:16;;;;;;;;;12.25;9.50;;;;;17.65;59.45;102076.81;4973784;28;46200;-75
2021/06/09 03:44:50;;;;;;;;;11.25;10.75;;;;;17.65;60.03;102079.47;4974730;28;45439;-76
2021/06/09 03:47:18;;;;;;;;;10.25;10.00;;;;;17.61;59.90;102070.72;4985307;28;45882;-78
2021/06/09 03:49:44;;;;;;;;;10.25;10.25;;;;;17.60;59.99;102065.50;4971384;28;45594;-78
2021/06/09 03:52:10;;;;;;;;;10.75;9.75;;;;;17.57;60.16;102062.97;4971089;28;47366;-76
2021/06/09 03:54:40;;;;;;;;;10.75;10.75;;;;;17.54;59.91;102062.16;4978395;28;45654;-76
2021/06/09 03:57:07;;;;;;;;;12.75;10.75;;;;;17.53;60.61;102062.22;4980008;28;45344;-74
2021/06/09 03:59:33;;;;;;;;;12.00;12.00;;;;;17.54;60.12;102064.81;4976219;28;47627;-74
2021/06/09 04:02:00;;;;;;;;;19.00;13.00;;;;;17.52;59.74;102066.69;4977305;28;45373;-74
2021/06/09 04:04:29;;;;;;;;;14.00;13.00;;;;;17.54;60.44;102059.50;4977455;28;45271;-74
2021/06/09 04:06:57;;;;;;;;;24.75;18.25;;;;;17.57;60.03;102061.16;4980126;28;45407;-74
2021/06/09 04:09:24;;;;;;;;;18.75;15.25;;;;;17.59;60.01;102066.41;4979736;28;45467;-74
2021/06/09 04:11:57;;;;;;;;;20.50;14.75;;;;;17.60;60.33;102063.72;4975721;28;45305;-74
2021/06/09 04:14:26;;;;;;;;;16.25;15.00;;;;;17.63;60.02;102068.03;4969090;28;45155;-74
2021/06/09 04:16:56;;;;;;;;;16.00;14.00;;;;;17.63;60.01;102065.38;4970217;28;45360;-74
2021/06/09 04:19:24;;;;;;;;;12.75;12.75;;;;;17.65;60.41;102068.81;4972782;28;45464;-74
2021/06/09 04:21:51;;;;;;;;;13.50;13.25;;;;;17.65;60.49;102066.16;4966046;28;46333;-74
2021/06/09 04:24:17;;;;;;;;;18.25;18.25;;;;;17.64;60.93;102064.44;4979209;28;45718;-74
2021/06/09 04:26:42;;;;;;;;;17.25;16.25;;;;;17.63;60.69;102062.72;4974858;28;45277;-74
2021/06/09 04:29:09;;;;;;;;;19.50;19.50;;;;;17.66;60.59;102066.09;4978132;28;45529;-75
2021/06/09 04:31:35;;;;;;;;;18.50;15.75;;;;;17.68;60.83;102062.50;4972379;28;45367;-74
2021/06/09 04:34:01;;;;;;;;;20.50;17.75;;;;;17.69;61.20;102067.75;4972388;28;45575;-74
2021/06/09 04:36:27;;;;;;;;;19.75;16.25;;;;;17.71;60.74;102065.91;4973200;28;45447;-74
2021/06/09 04:38:53;;;;;;;;;15.75;15.00;;;;;17.72;61.14;102066.75;4978718;28;45159;-74
2021/06/09 04:41:20;;;;;;;;;17.25;15.50;;;;;17.73;61.16;102074.66;4969461;28;45272;-73
2021/06/09 04:43:47;;;;;;;;;19.50;16.00;;;;;17.76;61.29;102074.53;4961229;28;45313;-73
2021/06/09 04:46:18;;;;;;;;;14.00;13.50;;;;;17.80;61.48;102075.28;4977895;28;45357;-73
2021/06/09 04:48:58;;;;;;;;;19.25;15.75;;;;;17.81;61.50;102070.81;4978222;28;46159;-73
2021/06/09 04:51:32;;;;;;;;;19.50;16.75;;;;;17.86;61.53;102074.16;4965096;28;46185;-73
2021/06/09 04:53:58;;;;;;;;;14.75;13.25;;;;;17.90;61.93;102070.44;4970848;28;45459;-74
2021/06/09 04:56:24;;;;;;;;;17.00;15.00;;;;;17.94;61.81;102076.47;4973498;28;45488;-75
2021/06/09 04:58:49;;;;;;;;;11.50;11.25;;;;;17.97;61.46;102081.69;4967609;28;45802;-75
2021/06/09 05:01:15;;;;;;;;;16.50;13.25;;;;;18.00;61.61;102074.41;4960467;28;46007;-75
2021/06/09 05:03:40;;;;;;;;;12.50;12.25;;;;;18.05;61.50;102076.03;4960805;28;45332;-75
2021/06/09 05:06:06;;;;;;;;;13.50;11.75;;;;;18.11;60.74;102079.28;4971509;28;45697;-75
2021/06/09 05:08:31;;;;;;;;;11.75;11.75;;;;;18.18;61.39;102084.31;4978147;28;45277;-75
2021/06/09 05:11:00;;;;;;;;;15.50;13.50;;;;;18.25;61.79;102082.31;4992627;28;48428;-75
2021/06/09 05:13:36;;;;;;;;;12.50;12.50;;;;;18.30;59.84;102088.25;4979684;28;45161;-75
2021/06/09 05:16:05;;;;;;;;;10.75;10.00;;;;;18.38;61.57;102087.91;4978010;28;45863;-75
2021/06/09 05:18:42;;;;;;;;;12.75;11.75;;;;;18.43;59.46;102089.47;4978685;28;46192;-75
2021/06/09 05:21:08;;;;;;;;;10.75;10.75;;;;;18.51;59.18;102090.91;4977836;28;47093;-75
2021/06/09 05:23:41;;;;;;;;;14.50;12.75;;;;;18.57;59.58;102087.94;4966426;28;45260;-75
2021/06/09 05:26:10;;;;;;;;;12.25;12.00;;;;;18.64;58.90;102091.22;4980077;28;45414;-75
2021/06/09 05:28:42;;;;;;;;;15.50;13.00;;;;;18.73;58.47;102092.56;4967740;28;45550;-75
2021/06/09 05:31:09;;;;;;;;;15.25;14.75;;;;;18.78;59.04;102095.91;4978622;28;46082;-75
2021/06/09 05:33:35;;;;;;;;;16.75;16.75;;;;;18.86;58.58;102091.09;4962067;28;45618;-75
2021/06/09 05:36:02;;;;;;;;;15.50;14.25;;;;;18.94;58.39;102089.88;4960312;28;45338;-75
2021/06/09 05:38:28;;;;;;;;;16.00;13.25;;;;;18.99;58.30;102085.16;4973539;28;45620;-75
2021/06/09 05:40:59;;;;;;;;;18.50;16.75;;;;;19.08;58.37;102089.19;4976751;28;46138;-75
2021/06/09 05:43:26;;;;;;;;;15.50;13.00;;;;;19.16;57.99;102094.16;4978943;28;45869;-75
2021/06/09 05:45:52;;;;;;;;;18.75;16.75;;;;;19.18;57.34;102090.53;4981910;28;45356;-75
2021/06/09 05:48:18;;;;;;;;;17.25;16.50;;;;;19.26;56.94;102092.78;4979471;28;46148;-75
2021/06/09 05:50:53;;;;;;;;;25.00;21.75;;;;;19.32;56.65;102088.97;4982111;28;46154;-75
2021/06/09 05:53:24;;;;;;;;;21.50;19.25;;;;;19.34;56.02;102090.63;4982104;28;45429;-75
2021/06/09 05:55:50;;;;;;;;;19.50;18.00;;;;;19.39;57.06;102090.41;4982218;28;45288;-75
2021/06/09 05:58:17;;;;;;;;;19.75;16.75;;;;;19.45;56.42;102086.56;4982854;28;45320;-75
2021/06/09 06:00:44;;;;;;;;;18.75;16.25;;;;;19.54;56.58;102090.56;4975081;28;45981;-75
2021/06/09 06:03:10;;;;;;;;;16.50;14.75;;;;;19.59;56.46;102085.88;4977696;28;45573;-75
2021/06/09 06:05:36;;;;;;;;;20.50;20.50;;;;;19.66;55.41;102081.97;4978309;28;45395;-75
2021/06/09 06:08:01;;;;;;;;;29.25;24.00;;;;;19.71;55.96;102084.38;4972970;28;45570;-75
2021/06/09 06:10:26;;;;;;;;;25.75;21.75;;;;;19.78;55.78;102093.81;4981005;28;45506;-75
2021/06/09 06:12:55;;;;;;;;;25.00;24.25;;;;;19.88;55.66;102090.66;4981043;28;45183;-73
2021/06/09 06:15:23;;;;;;;;;16.25;14.75;;;;;19.95;55.72;102097.41;4980674;28;45614;-74
2021/06/09 06:17:49;;;;;;;;;32.00;26.00;;;;;20.01;55.11;102096.25;4975026;28;45335;-74
2021/06/09 06:20:17;;;;;;;;;26.25;25.00;;;;;20.05;55.23;102091.63;4986286;28;47327;-74
2021/06/09 06:22:48;;;;;;;;;27.00;25.75;;;;;20.09;54.67;102095.84;4981600;28;45435;-74
2021/06/09 06:25:17;;;;;;;;;26.00;25.00;;;;;20.13;54.96;102098.31;4967627;28;45370;-74
2021/06/09 06:27:44;;;;;;;;;30.25;28.00;;;;;20.16;54.75;102091.94;4963601;28;45229;-75
2021/06/09 06:30:11;;;;;;;;;35.00;29.25;;;;;20.18;54.48;102089.19;4980928;28;45383;-74
2021/06/09 06:32:38;;;;;;;;;26.75;21.75;;;;;20.20;54.63;102087.31;4967094;28;45861;-74
2021/06/09 06:35:04;;;;;;;;;30.75;27.25;;;;;20.27;54.57;102090.53;4976333;28;45518;-74
2021/06/09 06:37:31;;;;;;;;;31.75;30.50;;;;;20.28;54.35;102084.22;4977937;28;45585;-74
2021/06/09 06:39:56;;;;;;;;;32.50;29.75;;;;;20.31;55.06;102092.94;4975259;28;45999;-74
2021/06/09 06:42:22;;;;;;;;;29.50;26.00;;;;;20.35;54.53;102088.28;4974839;28;45212;-74
2021/06/09 06:44:48;;;;;;;;;29.50;28.75;;;;;20.41;54.52;102095.13;4982610;28;45238;-74
2021/06/09 06:47:18;;;;;;;;;36.75;30.50;;;;;20.45;54.19;102092.19;4981957;28;45161;-74
2021/06/09 06:49:44;;;;;;;;;36.50;32.00;;;;;20.48;53.88;102091.16;4977058;28;45483;-77
2021/06/09 06:52:10;;;;;;;;;36.25;32.75;;;;;20.50;54.29;102099.09;4971564;28;45464;-75
2021/06/09 06:54:35;;;;;;;;;31.00;29.25;;;;;20.52;54.04;102087.38;4970318;28;45564;-75
2021/06/09 06:57:03;;;;;;;;;36.50;31.25;;;;;20.58;53.82;102091.53;4965508;28;45290;-75
2021/06/09 06:59:29;;;;;;;;;35.50;30.75;;;;;20.60;53.48;102092.31;4968342;28;46217;-75
2021/06/09 07:01:56;;;;;;;;;43.25;34.75;;;;;20.62;53.61;102095.75;4974050;28;45191;-75
2021/06/09 07:04:22;;;;;;;;;40.00;34.50;;;;;20.64;53.63;102093.84;4970649;28;45322;-75
2021/06/09 07:06:50;;;;;;;;;41.75;33.75;;;;;20.66;53.36;102100.00;4962522;28;45493;-75
2021/06/09 07:09:16;;;;;;;;;35.25;31.50;;;;;20.67;53.19;102104.38;4969656;28;45329;-75
2021/06/09 07:11:44;;;;;;;;;37.00;32.25;;;;;20.72;53.53;102105.97;4981719;28;45680;-75
2021/06/09 07:14:10;;;;;;;;;39.25;32.25;;;;;20.76;53.84;102095.00;4982196;28;45428;-75
2021/06/09 07:16:39;;;;;;;;;38.50;31.25;;;;;20.86;54.46;102105.19;4977190;28;45280;-75
2021/06/09 07:19:10;;;;;;;;;35.50;28.50;;;;;20.94;54.17;102099.41;4973468;28;45541;-75
2021/06/09 07:21:38;;;;;;;;;37.00;31.75;;;;;21.00;53.31;102102.63;4979123;28;45479;-75
2021/06/09 07:24:04;;;;;;;;;26.50;24.00;;;;;21.02;53.33;102094.53;4980274;28;45455;-75
2021/06/09 07:26:34;;;;;;;;;22.00;21.75;;;;;21.10;53.22;102102.97;4981610;28;45314;-75
2021/06/09 07:29:01;;;;;;;;;34.50;32.75;;;;;21.16;53.42;102095.56;4981447;28;46688;-75
2021/06/09 07:31:32;;;;;;;;;40.25;33.50;;;;;21.21;52.77;102098.84;4974436;28;45238;-75
2021/06/09 07:33:58;;;;;;;;;37.25;32.75;;;;;21.23;52.94;102092.47;4991672;28;45562;-75
2021/06/09 07:36:29;;;;;;;;;41.50;34.25;;;;;21.26;52.98;102099.41;4979303;28;47049;-75
2021/06/09 07:39:05;;;;;;;;;35.00;31.50;;;;;21.28;52.80;102097.53;4980819;28;45324;-75
2021/06/09 07:41:32;;;;;;;;;45.00;34.50;;;;;21.33;52.68;102097.28;4974242;28;45319;-75
2021/06/09 07:44:00;;;;;;;;;40.00;35.00;;;;;21.38;52.54;102099.69;4964778;28;45278;-75
2021/06/09 07:46:30;;;;;;;;;29.50;27.75;;;;;21.41;52.93;102095.00;4976269;28;45278;-75
2021/06/09 07:48:57;;;;;;;;;32.25;31.00;;;;;21.44;53.24;102093.97;4979321;28;48261;-75
2021/06/09 07:51:24;;;;;;;;;33.50;31.75;;;;;21.52;53.20;102099.72;4975336;28;45586;-75
2021/06/09 07:53:53;;;;;;;;;34.25;31.50;;;;;21.58;52.54;102102.03;4973446;28;45236;-75
2021/06/09 07:56:20;;;;;;;;;34.75;32.25;;;;;21.63;52.93;102093.75;4981110;28;45310;-75
2021/06/09 07:58:48;;;;;;;;;38.50;31.50;;;;;21.67;52.56;102092.63;4979888;28;45474;-75
2021/06/09 08:01:14;;;;;;;;;39.50;34.25;;;;;21.73;52.02;102098.56;4965740;28;46007;-75
2021/06/09 08:03:39;;;;;;;;;18.75;18.00;;;;;21.76;51.86;102093.00;4979388;28;45260;-74
2021/06/09 08:06:06;;;;;;;;;38.75;33.50;;;;;21.77;51.93;102095.63;4979543;28;45984;-74
2021/06/09 08:08:32;;;;;;;;;38.00;33.75;;;;;21.83;52.17;102104.25;4981176;28;45315;-74
2021/06/09 08:10:59;;;;;;;;;20.50;19.00;;;;;21.86;51.41;102099.56;4978985;28;45382;-74
2021/06/09 08:13:25;;;;;;;;;20.50;19.50;;;;;21.83;51.38;102098.88;4979929;28;45312;-74
2021/06/09 08:15:51;;;;;;;;;34.25;31.25;;;;;21.83;52.53;102098.88;4974172;28;45299;-74
2021/06/09 08:18:17;;;;;;;;;29.00;28.75;;;;;21.86;52.91;102098.69;4981424;28;47269;-74
2021/06/09 08:21:07;;;;;;;;;27.75;25.00;;;;;21.94;51.44;102107.16;4977179;28;45253;-74
2021/06/09 08:23:34;;;;;;;;;19.50;19.50;;;;;21.95;51.57;102094.63;4977043;28;45379;-75
2021/06/09 08:26:00;;;;;;;;;25.00;22.75;;;;;21.97;51.15;102093.59;4980466;28;45316;-74
2021/06/09 08:28:26;;;;;;;;;27.75;24.50;;;;;22.03;50.48;102106.59;4970442;28;45268;-74
2021/06/09 08:30:51;;;;;;;;;29.25;27.25;;;;;22.11;50.31;102092.75;4979302;28;45268;-74
2021/06/09 08:33:17;;;;;;;;;26.00;19.50;;;;;22.19;51.05;102088.72;4980218;28;45319;-74
2021/06/09 08:35:42;;;;;;;;;26.25;24.50;;;;;22.25;50.83;102094.56;4969759;28;46172;-74
2021/06/09 08:38:07;;;;;;;;;22.75;22.25;;;;;22.32;50.30;102099.56;4960975;28;45209;-74
2021/06/09 08:40:33;;;;;;;;;27.75;24.50;;;;;22.37;49.99;102089.41;4972921;28;45324;-74
2021/06/09 08:43:00;;;;;;;;;23.50;20.25;;;;;22.43;49.40;102086.34;4977098;28;45194;-74
2021/06/09 08:45:29;;;;;;;;;19.25;18.50;;;;;22.50;49.31;102081.47;4970230;28;45289;-74
2021/06/09 08:47:55;;;;;;;;;14.75;14.75;;;;;22.60;49.22;102081.75;4979609;28;46208;-74
2021/06/09 08:50:25;;;;;;;;;16.75;15.50;;;;;22.63;49.58;102086.91;4980566;28;45535;-74
2021/06/09 08:52:51;;;;;;;;;17.00;15.00;;;;;22.61;47.94;102086.16;4980408;28;45380;-74
2021/06/09 08:55:19;;;;;;;;;14.00;13.50;;;;;22.67;48.85;102079.53;4980563;28;45284;-74
2021/06/09 08:57:44;;;;;;;;;14.00;12.75;;;;;22.66;47.46;102085.84;4976583;28;45253;-74
2021/06/09 09:00:12;;;;;;;;;14.25;12.00;;;;;22.72;46.29;102088.16;4969026;28;45258;-74
2021/06/09 09:02:41;;;;;;;;;14.25;14.25;;;;;22.78;46.03;102093.16;4978595;28;45242;-74
2021/06/09 09:05:08;;;;;;;;;14.50;13.50;;;;;22.88;45.92;102087.19;4979615;28;45397;-74
2021/06/09 09:07:34;;;;;;;;;10.50;9.25;;;;;22.93;45.80;102085.94;4979668;28;45389;-74
2021/06/09 09:10:00;;;;;;;;;10.00;8.75;;;;;23.02;44.71;102092.50;4976351;28;45587;-74
2021/06/09 09:12:25;;;;;;;;;11.25;11.25;;;;;23.13;44.13;102091.81;4979719;28;45558;-74
2021/06/09 09:14:51;;;;;;;;;13.75;11.50;;;;;23.23;44.00;102096.56;4977576;28;46851;-74
2021/06/09 09:17:16;;;;;;;;;13.25;10.00;;;;;23.32;44.74;102098.63;4967127;28;45592;-74
2021/06/09 09:19:45;;;;;;;;;9.25;9.25;;;;;23.38;45.31;102089.34;4979323;28;45312;-74
2021/06/09 09:22:31;;;;;;;;;19.50;16.75;;;;;23.38;44.33;102095.53;4980274;28;45402;-73
2021/06/09 09:24:56;;;;;;;;;8.25;7.00;;;;;23.38;45.42;102087.50;4980087;28;45240;-73
2021/06/09 09:27:29;;;;;;;;;9.25;9.25;;;;;23.42;42.31;102098.03;4973349;28;45246;-73
2021/06/09 09:30:02;;;;;;;;;7.25;7.25;;;;;23.44;42.07;102096.97;4974677;28;45340;-73
2021/06/09 09:32:28;;;;;;;;;7.25;7.25;;;;;23.49;42.23;102102.03;4974066;28;45365;-73
2021/06/09 09:35:04;;;;;;;;;13.00;11.00;;;;;23.59;43.16;102107.66;4971178;28;45500;-74
2021/06/09 09:37:31;;;;;;;;;10.75;8.75;;;;;23.65;42.33;102109.06;4978848;28;45236;-74
2021/06/09 09:40:07;;;;;;;;;9.75;9.75;;;;;23.64;42.93;102113.56;4967695;28;45274;-74
2021/06/09 09:42:33;;;;;;;;;8.25;8.25;;;;;23.64;41.46;102108.22;4970661;28;45470;-74
2021/06/09 09:45:21;;;;;;;;;10.25;10.00;;;;;23.70;41.81;102109.63;4971458;28;45304;-74
2021/06/09 09:48:05;;;;;;;;;7.75;7.00;;;;;23.77;42.17;102107.38;4960007;28;45791;-74
2021/06/09 09:50:37;;;;;;;;;9.50;8.75;;;;;23.75;42.32;102106.63;4974717;28;45337;-74
2021/06/09 09:53:20;;;;;;;;;13.75;12.75;;;;;23.76;41.70;102114.56;4977014;28;46679;-76
2021/06/09 09:56:12;;;;;;;;;11.25;9.25;;;;;23.85;41.07;102104.16;4957496;28;47256;-76
2021/06/09 09:59:02;;;;;;;;;6.50;6.50;;;;;23.92;40.16;102100.09;4960544;28;45898;-74
2021/06/09 10:01:30;;;;;;;;;7.25;7.25;;;;;23.97;40.35;102103.31;4965936;28;45439;-74
2021/06/09 10:03:59;;;;;;;;;8.75;8.75;;;;;24.02;41.05;102100.31;4975993;28;45423;-74
2021/06/09 10:06:39;;;;;;;;;8.25;7.50;;;;;24.09;40.46;102100.75;4959216;28;45728;-75
2021/06/09 10:09:14;;;;;;;;;7.25;7.25;;;;;24.15;40.65;102101.16;4977907;28;46303;-74
2021/06/09 10:11:44;;;;;;;;;10.00;9.00;;;;;24.21;40.22;102102.56;4973931;28;45769;-74
2021/06/09 10:14:30;;;;;;;;;8.50;8.25;;;;;24.23;40.06;102102.44;4976878;28;45275;-74
2021/06/09 10:17:07;;;;;;;;;9.50;8.00;;;;;24.24;40.31;102104.19;4965476;28;45586;-75
2021/06/09 10:19:39;;;;;;;;;8.00;8.00;;;;;24.27;40.43;102102.16;4974713;28;47427;-75
2021/06/09 10:22:07;;;;;;;;;9.75;8.50;;;;;24.30;40.97;102102.94;4978140;28;45202;-75
2021/06/09 10:25:07;;;;;;;;;8.75;8.75;;;;;24.26;41.20;102103.16;4978500;28;45644;-75
2021/06/09 10:27:36;;;;;;;;;8.25;8.25;;;;;24.15;41.31;102100.34;4978432;28;46328;-75
2021/06/09 10:30:20;;;;;;;;;7.75;6.75;;;;;23.98;42.21;102101.50;4979104;28;45638;-74
2021/06/09 10:32:59;;;;;;;;;8.50;8.25;;;;;23.90;41.70;102088.59;4975634;28;45477;-75
2021/06/09 10:35:35;;;;;;;;;11.75;10.00;;;;;23.94;41.12;102092.78;4965331;28;45451;-75
2021/06/09 10:38:00;;;;;;;;;6.75;6.50;;;;;24.02;41.90;102093.13;4975373;28;45380;-75
2021/06/09 10:40:29;;;;;;;;;11.50;8.25;;;;;24.13;41.33;102092.38;4982531;28;45336;-75
2021/06/09 10:42:57;;;;;;;;;8.00;7.50;;;;;24.23;41.46;102092.56;4982354;28;45457;-75
2021/06/09 10:45:23;;;;;;;;;8.25;7.50;;;;;24.32;41.08;102090.25;4981868;28;45336;-75
2021/06/09 10:47:54;;;;;;;;;8.75;8.00;;;;;24.43;41.31;102087.66;4975369;28;45241;-75
2021/06/09 10:50:21;;;;;;;;;7.00;7.00;;;;;24.54;39.95;102088.72;4968864;28;45453;-75
2021/06/09 10:52:47;;;;;;;;;9.25;8.25;;;;;24.60;39.90;102086.44;4962577;28;45290;-75
2021/06/09 10:55:12;;;;;;;;;11.00;10.25;;;;;24.66;40.60;102087.84;4970615;28;45328;-75
2021/06/09 10:57:38;;;;;;;;;9.75;9.00;;;;;24.72;40.61;102082.00;4981482;28;45483;-75
2021/06/09 11:00:09;;;;;;;;;8.25;8.25;;;;;24.85;40.36;102083.78;4981589;28;46127;-75
2021/06/09 11:02:35;;;;;;;;;8.00;7.50;;;;;24.87;40.48;102081.84;4969990;28;45352;-75
2021/06/09 11:05:07;;;;;;;;;9.00;9.00;;;;;24.80;39.45;102086.81;4969629;28;45238;-75
2021/06/09 11:07:40;;;;;;;;;10.00;10.00;;;;;24.82;39.29;102075.94;4962531;28;45556;-75
2021/06/09 11:10:08;;;;;;;;;10.25;9.00;;;;;24.85;39.58;102081.09;4974230;28;45563;-75
2021/06/09 11:12:41;;;;;;;;;11.00;9.50;;;;;24.94;39.98;102085.78;4975473;28;45529;-75
2021/06/09 11:15:31;;;;;;;;;8.50;8.25;;;;;25.04;39.10;102080.63;4980367;28;45371;-75
2021/06/09 11:17:59;;;;;;;;;11.00;10.00;;;;;25.14;39.77;102072.72;4963173;28;45777;-75
2021/06/09 11:20:47;;;;;;;;;13.25;11.25;;;;;25.23;38.79;102068.50;4973023;28;47288;-75
2021/06/09 11:23:26;;;;;;;;;8.75;8.75;;;;;25.31;39.27;102061.69;4968705;28;45219;-75
2021/06/09 11:25:52;;;;;;;;;9.00;8.00;;;;;25.42;39.33;102068.94;4970150;28;45412;-75